KBKE/BKE METAR and TAF weather

Enter ICAO airport designator
Station Type Date Time Source
KBKE METAR 2024/04/15 09:53 UTC NOAA

KBKE 150953Z AUTO 16005KT 10SM SCT100 08/06 A2994 RMK AO2 SLP125 T00780061


Station Type Date Time Source
KBKE Decoded METAR 2024/04/15 09:53 UTC NOAA

BAKER MUNICIPAL AIRPORT, OR, United States (KBKE) 44-50N 117-49W 1024M
Apr 15, 2024 - 05:53 AM EDT / 2024.04.15 0953 UTC
Wind: from the SSE (160 degrees) at 6 MPH (5 KT):0
Visibility: 10 mile(s):0
Sky conditions: partly cloudy
Temperature: 46.0 F (7.8 C)
Dew Point: 43.0 F (6.1 C)
Relative Humidity: 88%
Pressure (altimeter): 29.94 in. Hg (1013 hPa)
ob: KBKE 150953Z AUTO 16005KT 10SM SCT100 08/06 A2994 RMK AO2 SLP125 T00780061
cycle: 10

Station Type Date Time Source
KBKE TAF 2024/04/15 07:16 UTC NOAA